Time;durP1;ratioP1;P1;durP2;ratioP2;P2;SDS_P1;SDS_P2;PMS_P1;PMS_P2;Temp;Humidity;BMP_temperature;BMP_pressure;BME280_temperature;BME280_humidity;BME280_pressure;Samples;Min_cycle;Max_cycle;Signal;HPM_P1;HPM_P2
2022/07/29 00:02:09;;;;;;;3.20;1.20;;;15.30;99.90;;;;;;5074355;28;20048;-86
2022/07/29 00:04:35;;;;;;;2.97;1.33;;;15.20;99.90;;;;;;5092630;28;20086;-87
2022/07/29 00:07:02;;;;;;;2.85;1.30;;;15.20;99.90;;;;;;5074667;28;20055;-86
2022/07/29 00:09:28;;;;;;;2.97;1.35;;;15.10;99.90;;;;;;5092478;28;20557;-87
2022/07/29 00:11:56;;;;;;;4.88;1.30;;;15.20;99.90;;;;;;5092600;28;20159;-86
2022/07/29 00:14:22;;;;;;;3.35;1.35;;;15.00;99.90;;;;;;5074401;28;20535;-87
2022/07/29 00:16:47;;;;;;;2.88;1.20;;;15.10;99.90;;;;;;5074549;28;20087;-87
2022/07/29 00:19:13;;;;;;;5.18;1.50;;;15.10;99.90;;;;;;5092563;28;20087;-86
2022/07/29 00:21:39;;;;;;;2.47;1.20;;;15.00;99.90;;;;;;5057486;28;20048;-86
2022/07/29 00:24:04;;;;;;;2.53;0.98;;;15.10;99.90;;;;;;5074582;28;20450;-89
2022/07/29 00:26:32;;;;;;;2.83;1.10;;;15.00;99.90;;;;;;5077362;28;20485;-85
2022/07/29 00:29:03;;;;;;;1.58;1.05;;;15.00;99.90;;;;;;5096508;28;20048;-85
2022/07/29 00:31:28;;;;;;;5.32;1.58;;;15.00;99.90;;;;;;5096233;28;20051;-86
2022/07/29 00:33:55;;;;;;;3.05;1.33;;;15.00;99.90;;;;;;5096293;28;20140;-86
2022/07/29 00:36:21;;;;;;;1.92;1.00;;;15.10;99.90;;;;;;5078247;28;20130;-87
2022/07/29 00:38:50;;;;;;;5.40;1.40;;;15.00;99.90;;;;;;5095872;28;20569;-87
2022/07/29 00:41:17;;;;;;;3.22;1.15;;;15.00;99.90;;;;;;5077982;28;20113;-87
2022/07/29 00:43:43;;;;;;;4.18;1.20;;;15.00;99.90;;;;;;5096041;28;20063;-86
2022/07/29 00:46:08;;;;;;;4.70;1.33;;;15.00;99.90;;;;;;5077876;28;20055;-86
2022/07/29 00:48:34;;;;;;;4.30;1.48;;;15.00;99.90;;;;;;5095838;28;20067;-86
2022/07/29 00:51:02;;;;;;;3.83;1.30;;;15.00;99.90;;;;;;5095716;28;20048;-87
2022/07/29 00:53:29;;;;;;;3.00;1.60;;;15.00;99.90;;;;;;5095732;28;20040;-87
2022/07/29 00:55:56;;;;;;;2.78;1.30;;;15.00;99.90;;;;;;5095661;28;20164;-88
2022/07/29 00:58:22;;;;;;;4.15;1.20;;;15.00;99.90;;;;;;5061080;28;20157;-86
2022/07/29 01:00:48;;;;;;;2.78;1.45;;;14.90;99.90;;;;;;5077803;28;20388;-85
2022/07/29 01:03:14;;;;;;;2.85;1.40;;;14.90;99.90;;;;;;5077179;28;20052;-87
2022/07/29 01:05:42;;;;;;;2.42;1.20;;;14.90;99.90;;;;;;5095503;28;20048;-88
2022/07/29 01:08:08;;;;;;;4.50;1.45;;;14.90;99.90;;;;;;5060900;28;20109;-86
2022/07/29 01:10:37;;;;;;;8.23;1.55;;;14.80;99.90;;;;;;5077082;28;20078;-86
2022/07/29 01:13:04;;;;;;;3.17;1.35;;;14.90;99.90;;;;;;5077500;28;20078;-86
2022/07/29 01:15:29;;;;;;;3.70;1.60;;;14.90;99.90;;;;;;5095427;28;20051;-87
2022/07/29 01:18:06;;;;;;;3.33;1.30;;;14.90;99.90;;;;;;5095465;28;20052;-86
2022/07/29 01:20:47;;;;;;;5.30;1.27;;;15.00;99.90;;;;;;5095357;28;20131;-87
2022/07/29 01:23:30;;;;;;;2.15;1.38;;;15.00;99.90;;;;;;5076995;28;20060;-83
2022/07/29 01:26:14;;;;;;;2.35;1.40;;;15.00;99.90;;;;;;5095562;28;20056;-87
2022/07/29 01:29:18;;;;;;;4.30;1.58;;;15.00;99.90;;;;;;5094917;28;20048;-87
2022/07/29 01:32:05;;;;;;;5.00;1.50;;;15.00;99.90;;;;;;5095094;28;20083;-87
2022/07/29 01:34:41;;;;;;;3.40;1.60;;;15.00;99.90;;;;;;5094942;28;20055;-85
2022/07/29 01:37:23;;;;;;;5.10;1.50;;;14.90;99.90;;;;;;5093741;28;20158;-86
2022/07/29 01:39:52;;;;;;;4.95;1.60;;;14.90;99.90;;;;;;5094552;28;20052;-85
2022/07/29 01:42:36;;;;;;;3.28;1.38;;;14.90;99.90;;;;;;5095079;28;20048;-81
2022/07/29 01:45:09;;;;;;;4.82;1.38;;;14.90;99.90;;;;;;5077007;28;20048;-81
2022/07/29 01:47:43;;;;;;;4.18;1.45;;;14.90;99.90;;;;;;5094716;28;20052;-88
2022/07/29 01:50:14;;;;;;;4.18;1.60;;;14.90;99.90;;;;;;5094563;28;20044;-89
2022/07/29 01:52:48;;;;;;;3.50;1.27;;;15.00;99.90;;;;;;5094438;28;20429;-87
2022/07/29 01:55:16;;;;;;;2.25;1.30;;;15.00;99.90;;;;;;5076965;28;20054;-87
2022/07/29 01:57:45;;;;;;;4.60;1.70;;;15.00;99.90;;;;;;5094669;28;20048;-85
2022/07/29 02:00:12;;;;;;;3.58;1.40;;;15.00;99.90;;;;;;5076706;28;20056;-83
2022/07/29 02:02:43;;;;;;;5.38;1.52;;;14.90;99.90;;;;;;5076223;28;20054;-85
2022/07/29 02:05:12;;;;;;;4.38;1.63;;;14.80;99.90;;;;;;5076166;28;20051;-87
2022/07/29 02:07:38;;;;;;;3.08;1.80;;;14.80;99.90;;;;;;5094506;28;20122;-86
2022/07/29 02:10:06;;;;;;;7.28;1.60;;;14.80;99.90;;;;;;5059902;28;20409;-89
2022/07/29 02:12:32;;;;;;;3.97;1.50;;;14.80;99.90;;;;;;5094112;28;20052;-88
2022/07/29 02:15:01;;;;;;;5.03;1.77;;;14.90;99.90;;;;;;5094356;28;20439;-86
2022/07/29 02:17:32;;;;;;;3.38;1.48;;;14.80;99.90;;;;;;5093999;28;20259;-87
2022/07/29 02:20:02;;;;;;;3.50;1.50;;;14.80;99.90;;;;;;5094189;28;20048;-86
2022/07/29 02:22:30;;;;;;;4.20;1.70;;;14.80;99.90;;;;;;5076297;28;20051;-85
2022/07/29 02:24:58;;;;;;;3.65;1.73;;;14.70;99.90;;;;;;5094131;28;20051;-86
2022/07/29 02:27:27;;;;;;;2.70;1.45;;;14.80;99.90;;;;;;5094189;28;20051;-86
2022/07/29 02:29:54;;;;;;;3.15;1.52;;;14.80;99.90;;;;;;5093861;28;20132;-86
2022/07/29 02:32:22;;;;;;;5.28;1.80;;;14.80;99.90;;;;;;5093663;28;20044;-87
2022/07/29 02:34:49;;;;;;;4.43;1.52;;;14.80;99.90;;;;;;5075876;28;20052;-87
2022/07/29 02:37:17;;;;;;;4.25;1.58;;;14.80;99.90;;;;;;5094045;28;20056;-87
2022/07/29 02:39:44;;;;;;;2.72;1.73;;;14.70;99.90;;;;;;5093856;28;20067;-85
2022/07/29 02:42:13;;;;;;;3.97;1.50;;;14.70;99.90;;;;;;5093556;28;20080;-87
2022/07/29 02:44:38;;;;;;;3.28;1.73;;;14.80;99.90;;;;;;5075595;28;20047;-87
2022/07/29 02:47:15;;;;;;;6.13;1.50;;;14.80;99.90;;;;;;5093359;28;20051;-88
2022/07/29 02:49:59;;;;;;;3.95;1.50;;;14.80;99.90;;;;;;5042978;28;20059;-87
2022/07/29 02:52:29;;;;;;;5.13;1.70;;;14.70;99.90;;;;;;5075596;28;20486;-87
2022/07/29 02:54:59;;;;;;;4.72;1.73;;;14.70;99.90;;;;;;5093716;28;20135;-88
2022/07/29 02:57:34;;;;;;;3.38;1.85;;;14.70;99.90;;;;;;5075830;28;20160;-85
2022/07/29 03:00:05;;;;;;;3.53;1.88;;;14.70;99.90;;;;;;5075702;28;20055;-86
2022/07/29 03:02:35;;;;;;;3.58;1.70;;;14.60;99.90;;;;;;5093386;28;20048;-87
2022/07/29 03:05:02;;;;;;;4.20;1.80;;;14.50;99.90;;;;;;5075405;28;20048;-86
2022/07/29 03:07:29;;;;;;;2.53;1.45;;;14.50;99.90;;;;;;5093301;28;20133;-87
2022/07/29 03:09:55;;;;;;;4.70;1.73;;;14.40;99.90;;;;;;5075525;28;20043;-83
2022/07/29 03:12:21;;;;;;;4.53;1.80;;;14.40;99.90;;;;;;5092909;28;20052;-87
2022/07/29 03:14:48;;;;;;;5.85;1.60;;;14.40;99.90;;;;;;5093060;28;20497;-86
2022/07/29 03:17:14;;;;;;;4.20;1.80;;;14.40;99.90;;;;;;5093160;28;20054;-85
2022/07/29 03:19:41;;;;;;;4.38;1.50;;;14.30;99.90;;;;;;5075315;28;20058;-87
2022/07/29 03:22:06;;;;;;;3.33;1.55;;;14.30;99.90;;;;;;5074973;28;20131;-88
2022/07/29 03:24:34;;;;;;;3.42;1.48;;;14.30;99.90;;;;;;5093068;28;20083;-87
2022/07/29 03:27:01;;;;;;;2.58;1.40;;;14.30;99.90;;;;;;5092640;28;20098;-86
2022/07/29 03:29:28;;;;;;;4.22;1.80;;;14.20;99.90;;;;;;5075049;28;20048;-86
2022/07/29 03:31:53;;;;;;;3.03;1.70;;;14.20;99.90;;;;;;5093058;28;20051;-87
2022/07/29 03:34:19;;;;;;;4.65;1.63;;;14.40;99.90;;;;;;5092749;28;20048;-86
2022/07/29 03:36:46;;;;;;;2.80;1.48;;;14.10;99.90;;;;;;5092900;28;20508;-86
2022/07/29 03:39:16;;;;;;;2.83;1.40;;;14.10;99.90;;;;;;5092904;28;20048;-86
2022/07/29 03:41:44;;;;;;;5.57;1.52;;;14.20;99.90;;;;;;5074882;28;20082;-87
2022/07/29 03:44:10;;;;;;;3.53;1.25;;;14.20;99.90;;;;;;5075125;28;20534;-87
2022/07/29 03:46:38;;;;;;;6.28;2.15;;;14.20;99.90;;;;;;5092931;28;20066;-86
2022/07/29 03:49:07;;;;;;;4.97;1.60;;;14.10;99.90;;;;;;5092763;28;20048;-87
2022/07/29 03:51:34;;;;;;;2.58;1.77;;;14.10;99.90;;;;;;5074968;28;20078;-87
2022/07/29 03:54:04;;;;;;;2.83;1.33;;;14.10;99.90;;;;;;5093152;28;20048;-87
2022/07/29 03:56:34;;;;;;;4.60;1.60;;;14.10;99.90;;;;;;5092583;28;20070;-87
2022/07/29 03:59:02;;;;;;;5.05;1.70;;;14.10;99.90;;;;;;5057427;28;20052;-88
2022/07/29 04:01:28;;;;;;;4.20;1.75;;;14.00;99.90;;;;;;5077834;28;20055;-87
2022/07/29 04:03:55;;;;;;;5.10;1.80;;;14.10;99.90;;;;;;5061988;28;20048;-87
2022/07/29 04:06:21;;;;;;;2.60;1.83;;;14.00;99.90;;;;;;5078831;28;20040;-86
2022/07/29 04:08:46;;;;;;;3.35;1.38;;;14.10;99.90;;;;;;5078712;28;20542;-87
2022/07/29 04:11:12;;;;;;;2.97;1.70;;;14.10;99.90;;;;;;5096305;28;20044;-87
2022/07/29 04:13:38;;;;;;;4.72;1.50;;;14.10;99.90;;;;;;5062143;28;20052;-86
2022/07/29 04:16:04;;;;;;;5.18;1.63;;;14.00;99.90;;;;;;5096826;28;20055;-87
2022/07/29 04:18:30;;;;;;;3.17;1.45;;;14.10;99.90;;;;;;5096500;28;20044;-92
2022/07/29 04:20:55;;;;;;;3.75;1.45;;;14.00;99.90;;;;;;5078524;28;20456;-87
2022/07/29 04:23:21;;;;;;;2.85;1.67;;;14.10;99.90;;;;;;5096663;28;20181;-87
2022/07/29 04:25:47;;;;;;;5.70;1.80;;;14.00;99.90;;;;;;5078155;28;20097;-87
2022/07/29 04:28:13;;;;;;;3.30;1.40;;;14.10;99.90;;;;;;5078509;28;20059;-88
2022/07/29 04:30:38;;;;;;;4.82;1.58;;;14.10;99.90;;;;;;5078475;28;20048;-87
2022/07/29 04:33:06;;;;;;;5.32;1.80;;;14.10;99.90;;;;;;5096578;28;20047;-88
2022/07/29 04:35:37;;;;;;;5.07;1.70;;;14.00;99.90;;;;;;5096102;28;20101;-88
2022/07/29 04:38:03;;;;;;;2.75;1.50;;;14.00;99.90;;;;;;5077953;28;20040;-88
2022/07/29 04:40:29;;;;;;;4.40;1.80;;;14.00;99.90;;;;;;5095953;28;20385;-87
2022/07/29 04:42:55;;;;;;;3.63;1.70;;;14.00;99.90;;;;;;5096139;28;20036;-87
2022/07/29 04:45:20;;;;;;;3.00;1.35;;;14.00;99.90;;;;;;5077991;28;20063;-87
2022/07/29 04:47:46;;;;;;;5.47;1.70;;;14.00;99.90;;;;;;5095869;28;20058;-87
2022/07/29 04:50:12;;;;;;;6.13;1.75;;;14.10;99.90;;;;;;5095960;28;20048;-87
2022/07/29 04:52:38;;;;;;;5.47;1.70;;;14.10;99.90;;;;;;5061145;28;20048;-87
2022/07/29 04:55:05;;;;;;;4.47;1.58;;;14.10;99.90;;;;;;5061008;28;20105;-87
2022/07/29 04:57:31;;;;;;;4.78;1.75;;;14.10;99.90;;;;;;5077948;28;20062;-87
2022/07/29 04:59:56;;;;;;;3.58;1.77;;;14.10;99.90;;;;;;5095567;28;20413;-93
2022/07/29 05:02:22;;;;;;;4.82;1.80;;;14.10;99.90;;;;;;5095647;28;20048;-86
2022/07/29 05:04:48;;;;;;;7.03;1.80;;;14.20;99.90;;;;;;5095569;28;20051;-87
2022/07/29 05:07:14;;;;;;;3.70;1.70;;;14.20;99.90;;;;;;5095402;28;20562;-85
2022/07/29 05:09:40;;;;;;;4.18;1.60;;;14.20;99.90;;;;;;5095415;28;20056;-88
2022/07/29 05:12:06;;;;;;;4.57;1.90;;;14.20;99.90;;;;;;5095083;28;20055;-90
2022/07/29 05:14:32;;;;;;;4.53;1.48;;;14.20;99.90;;;;;;5095529;28;20123;-88
2022/07/29 05:16:58;;;;;;;5.68;2.08;;;14.20;99.90;;;;;;5077636;28;20138;-87
2022/07/29 05:19:23;;;;;;;5.30;2.00;;;14.30;99.90;;;;;;5095410;28;20048;-87
2022/07/29 05:21:49;;;;;;;4.72;1.80;;;14.30;99.90;;;;;;5095172;28;20079;-87
2022/07/29 05:24:15;;;;;;;4.85;2.00;;;14.40;99.90;;;;;;5060320;28;20054;-87
2022/07/29 05:26:41;;;;;;;6.57;1.88;;;14.50;99.90;;;;;;5076648;28;20086;-86
2022/07/29 05:29:07;;;;;;;2.65;1.30;;;14.50;99.90;;;;;;5095288;28;20445;-87
2022/07/29 05:31:36;;;;;;;4.18;1.80;;;14.60;99.90;;;;;;5077167;28;20052;-88
2022/07/29 05:34:01;;;;;;;3.67;1.48;;;14.80;99.90;;;;;;5095315;28;20048;-90
2022/07/29 05:36:27;;;;;;;6.88;1.70;;;14.80;99.90;;;;;;5095157;28;20052;-86
2022/07/29 05:38:52;;;;;;;4.90;1.60;;;14.90;99.90;;;;;;5094992;28;20044;-87
2022/07/29 05:41:19;;;;;;;4.18;1.90;;;14.90;99.90;;;;;;5060117;28;20048;-88
2022/07/29 05:43:44;;;;;;;4.85;2.03;;;15.00;99.90;;;;;;5094701;28;20044;-88
2022/07/29 05:46:10;;;;;;;4.93;1.80;;;15.20;99.90;;;;;;5077098;28;20055;-86
2022/07/29 05:48:36;;;;;;;7.68;1.55;;;15.20;99.90;;;;;;5094817;28;20093;-86
2022/07/29 05:51:02;;;;;;;6.15;2.00;;;15.30;99.90;;;;;;5060202;28;20055;-87
2022/07/29 05:53:27;;;;;;;4.07;1.63;;;15.30;99.90;;;;;;5094707;28;20046;-87
2022/07/29 05:55:53;;;;;;;5.53;1.80;;;15.60;99.90;;;;;;5094606;28;20058;-84
2022/07/29 05:58:19;;;;;;;6.00;1.80;;;15.40;99.90;;;;;;5094624;28;20518;-87
2022/07/29 06:00:45;;;;;;;5.80;1.90;;;15.50;99.90;;;;;;5094702;28;20048;-86
2022/07/29 06:03:11;;;;;;;3.17;1.50;;;15.60;99.90;;;;;;5076438;28;20134;-82
2022/07/29 06:05:36;;;;;;;3.47;1.50;;;15.70;99.90;;;;;;5059881;28;20131;-87
2022/07/29 06:08:03;;;;;;;6.65;1.70;;;15.70;99.90;;;;;;5094386;28;20052;-87
2022/07/29 06:10:29;;;;;;;4.65;1.77;;;15.80;99.90;;;;;;5094227;28;20052;-91
2022/07/29 06:12:55;;;;;;;4.03;1.55;;;15.90;99.90;;;;;;5094207;28;20362;-87
2022/07/29 06:15:20;;;;;;;3.30;1.65;;;15.90;99.90;;;;;;5094168;28;20393;-86
2022/07/29 06:17:47;;;;;;;4.80;2.00;;;15.90;99.90;;;;;;5076260;28;20063;-87
2022/07/29 06:20:13;;;;;;;5.45;2.28;;;15.90;99.90;;;;;;5094215;28;20048;-88
2022/07/29 06:22:39;;;;;;;6.70;1.70;;;15.80;99.90;;;;;;5075518;28;20059;-88
2022/07/29 06:25:05;;;;;;;3.92;1.80;;;15.80;99.90;;;;;;5093985;28;20382;-88
2022/07/29 06:27:30;;;;;;;5.75;1.60;;;15.80;99.90;;;;;;5093862;28;20078;-87
2022/07/29 06:29:56;;;;;;;6.03;1.80;;;15.80;99.90;;;;;;5076159;28;20080;-87
2022/07/29 06:32:22;;;;;;;4.13;1.50;;;15.70;99.90;;;;;;5094039;28;20424;-85
2022/07/29 06:34:47;;;;;;;6.93;1.92;;;15.80;99.90;;;;;;5094165;28;20059;-88
2022/07/29 06:37:14;;;;;;;7.43;2.38;;;15.70;99.90;;;;;;5094062;28;20182;-86
2022/07/29 06:39:39;;;;;;;6.35;1.92;;;15.80;99.90;;;;;;5093683;28;20044;-86
2022/07/29 06:42:06;;;;;;;6.00;2.25;;;15.70;99.90;;;;;;5093690;28;20050;-88
2022/07/29 06:44:33;;;;;;;3.85;1.98;;;15.70;99.90;;;;;;5058877;28;20777;-86
2022/07/29 06:47:00;;;;;;;8.85;2.00;;;15.70;99.90;;;;;;5093996;28;20113;-85
2022/07/29 06:49:27;;;;;;;7.82;1.80;;;15.70;99.90;;;;;;5094201;28;20062;-86
2022/07/29 06:51:53;;;;;;;5.28;1.65;;;15.70;99.90;;;;;;5075685;28;20050;-87
2022/07/29 06:54:19;;;;;;;8.70;2.05;;;15.80;99.90;;;;;;5075591;28;20804;-87
2022/07/29 06:56:45;;;;;;;4.97;1.80;;;15.80;99.90;;;;;;5058819;28;20044;-87
2022/07/29 06:59:12;;;;;;;8.23;1.67;;;15.80;99.90;;;;;;5075117;28;20393;-86
2022/07/29 07:01:39;;;;;;;4.68;1.75;;;15.80;99.90;;;;;;5058688;28;20052;-87
2022/07/29 07:04:05;;;;;;;6.25;2.10;;;15.90;99.90;;;;;;5093554;28;20130;-89
2022/07/29 07:06:31;;;;;;;5.78;1.95;;;15.80;99.90;;;;;;5093408;28;20087;-87
2022/07/29 07:08:56;;;;;;;6.72;2.08;;;15.90;99.90;;;;;;5093489;28;20048;-86
2022/07/29 07:11:22;;;;;;;4.15;1.90;;;15.90;99.90;;;;;;5093326;28;20500;-86
2022/07/29 07:13:48;;;;;;;7.40;1.83;;;16.00;99.90;;;;;;5075222;28;20048;-87
2022/07/29 07:16:13;;;;;;;5.03;1.90;;;16.10;99.90;;;;;;5093325;28;20102;-87
2022/07/29 07:18:39;;;;;;;3.55;2.03;;;16.30;99.90;;;;;;5075324;28;20055;-87
2022/07/29 07:21:05;;;;;;;3.28;1.58;;;16.40;99.90;;;;;;5075222;28;20048;-87
2022/07/29 07:23:31;;;;;;;7.40;2.00;;;16.60;99.90;;;;;;5075102;28;20050;-86
2022/07/29 07:25:56;;;;;;;6.18;2.00;;;16.70;99.90;;;;;;5092985;28;20471;-85
2022/07/29 07:28:22;;;;;;;3.05;1.40;;;16.70;99.90;;;;;;5093173;28;20050;-87
2022/07/29 07:30:48;;;;;;;6.28;1.90;;;16.90;99.90;;;;;;5092874;28;20136;-87
2022/07/29 07:33:14;;;;;;;6.03;1.85;;;17.00;99.90;;;;;;5093232;28;20389;-87
2022/07/29 07:35:41;;;;;;;6.10;1.80;;;17.10;99.90;;;;;;5093183;28;20044;-87
2022/07/29 07:38:06;;;;;;;4.63;1.77;;;17.30;99.90;;;;;;5092771;28;20056;-87
2022/07/29 07:40:32;;;;;;;3.05;1.60;;;17.20;99.90;;;;;;5075027;28;20059;-87
2022/07/29 07:42:58;;;;;;;3.97;1.55;;;17.40;99.90;;;;;;5074560;28;20454;-87
2022/07/29 07:45:24;;;;;;;3.88;1.70;;;17.40;99.90;;;;;;5074635;28;20079;-87
2022/07/29 07:47:50;;;;;;;6.13;1.90;;;17.40;99.90;;;;;;5074874;28;20043;-86
2022/07/29 07:50:17;;;;;;;4.10;1.23;;;17.30;99.90;;;;;;5092848;28;20439;-87
2022/07/29 07:52:48;;;;;;;6.40;1.95;;;17.40;99.90;;;;;;5074883;28;20047;-87
2022/07/29 07:55:14;;;;;;;;;;;17.50;99.90;;;;;;5093162;28;20080;-84
2022/07/29 07:57:39;;;;;;;5.03;2.08;;;17.50;99.90;;;;;;5074938;28;20383;-88
2022/07/29 08:00:06;;;;;;;5.10;1.75;;;17.50;99.90;;;;;;5074411;28;20059;-88
2022/07/29 08:02:31;;;;;;;7.75;2.00;;;17.50;99.90;;;;;;5057863;28;20059;-87
2022/07/29 08:04:57;;;;;;;6.60;1.70;;;17.60;99.90;;;;;;5074822;28;20052;-87
2022/07/29 08:07:23;;;;;;;7.75;2.15;;;17.60;99.90;;;;;;5092607;28;20048;-87
2022/07/29 08:09:48;;;;;;;4.28;1.65;;;17.60;99.90;;;;;;5092659;28;20131;-86
2022/07/29 08:12:14;;;;;;;5.13;1.90;;;17.50;99.90;;;;;;5092738;28;20048;-87
2022/07/29 08:14:40;;;;;;;3.58;1.73;;;17.50;99.90;;;;;;5074270;28;20435;-86
2022/07/29 08:17:05;;;;;;;9.45;1.88;;;17.40;99.90;;;;;;5092732;28;20511;-87
2022/07/29 08:19:31;;;;;;;6.13;2.22;;;17.30;99.90;;;;;;5074694;28;20386;-87
2022/07/29 08:21:57;;;;;;;3.92;1.83;;;17.20;99.90;;;;;;5092492;28;20047;-87
2022/07/29 08:27:07;;;;;;;8.30;2.70;;;17.00;99.90;;;;;;5066981;28;20055;-85
2022/07/29 08:29:33;;;;;;;6.22;2.00;;;16.90;99.90;;;;;;5092167;28;20048;-89
2022/07/29 08:31:58;;;;;;;3.55;1.92;;;16.70;99.90;;;;;;5074750;28;20051;-85
2022/07/29 08:34:24;;;;;;;7.93;3.08;;;16.70;99.90;;;;;;5057975;28;20482;-84
2022/07/29 08:36:49;;;;;;;6.55;2.67;;;16.60;99.90;;;;;;5092463;28;20056;-87
2022/07/29 08:39:15;;;;;;;5.95;2.10;;;16.50;99.90;;;;;;5074684;28;20127;-87
2022/07/29 08:41:41;;;;;;;5.53;2.50;;;16.40;99.90;;;;;;5074622;28;20094;-87
2022/07/29 08:44:06;;;;;;;7.22;2.17;;;16.30;99.90;;;;;;5074166;28;20101;-87
2022/07/29 08:46:33;;;;;;;7.50;2.80;;;16.40;99.90;;;;;;5094143;28;20090;-88
2022/07/29 08:48:58;;;;;;;6.43;2.42;;;16.40;99.90;;;;;;5096417;28;20056;-85
2022/07/29 08:51:26;;;;;;;7.63;2.55;;;16.50;99.90;;;;;;5095951;28;20358;-88
2022/07/29 08:53:54;;;;;;;12.02;2.53;;;16.50;99.90;;;;;;5077423;28;20125;-87
2022/07/29 08:56:21;;;;;;;9.57;2.55;;;16.70;99.90;;;;;;5095718;28;20110;-87
2022/07/29 08:58:48;;;;;;;5.90;2.30;;;16.80;99.90;;;;;;5077539;28;20059;-85
2022/07/29 09:01:21;;;;;;;6.80;2.20;;;16.90;99.90;;;;;;5078067;28;20052;-87
2022/07/29 09:03:48;;;;;;;5.68;2.22;;;17.00;99.90;;;;;;5077804;28;20120;-87
2022/07/29 09:06:16;;;;;;;6.85;2.60;;;17.10;99.90;;;;;;5077686;28;20443;-87
2022/07/29 09:08:42;;;;;;;7.13;2.80;;;17.40;99.90;;;;;;5096024;28;20388;-87
2022/07/29 09:11:08;;;;;;;5.60;2.60;;;17.50;99.90;;;;;;5095613;28;20052;-86
2022/07/29 09:13:34;;;;;;;4.45;2.30;;;17.50;99.90;;;;;;5077543;28;20054;-84
2022/07/29 09:16:00;;;;;;;13.93;2.75;;;17.70;99.90;;;;;;5095828;28;20143;-87
2022/07/29 09:18:42;;;;;;;5.03;2.25;;;17.80;99.90;;;;;;5044203;28;20487;-87
2022/07/29 09:24:12;;;;;;;6.15;1.95;;;18.10;99.90;;;;;;5076943;28;20048;-89
2022/07/29 09:26:44;;;;;;;8.88;2.35;;;18.20;99.90;;;;;;5095583;28;20079;-87
2022/07/29 09:29:19;;;;;;;4.53;2.42;;;18.30;99.90;;;;;;5095263;28;20059;-86
2022/07/29 09:31:47;;;;;;;5.97;2.28;;;18.40;99.90;;;;;;5095178;28;20048;-88
2022/07/29 09:34:25;;;;;;;5.18;2.17;;;18.50;99.90;;;;;;5077006;28;20044;-87
2022/07/29 09:36:52;;;;;;;6.28;2.35;;;18.60;99.90;;;;;;5077457;28;20546;-85
2022/07/29 09:39:43;;;;;;;5.60;1.77;;;18.70;99.90;;;;;;5077117;28;20040;-85
2022/07/29 09:42:10;;;;;;;5.05;2.03;;;18.80;99.90;;;;;;5094807;28;20040;-86
2022/07/29 09:44:50;;;;;;;5.43;1.85;;;18.80;99.90;;;;;;5077141;28;20043;-87
2022/07/29 09:47:17;;;;;;;7.60;2.28;;;18.90;99.90;;;;;;5095020;28;20131;-87
2022/07/29 09:49:59;;;;;;;9.27;2.40;;;19.00;99.90;;;;;;5094941;28;20048;-86
2022/07/29 09:52:29;;;;;;;4.78;2.05;;;19.10;99.90;;;;;;5094854;28;20051;-85
2022/07/29 09:55:06;;;;;;;5.25;2.28;;;19.20;99.90;;;;;;5076651;28;20496;-87
2022/07/29 09:57:31;;;;;;;6.50;2.60;;;19.30;99.90;;;;;;5093765;28;20090;-88
2022/07/29 09:59:59;;;;;;;6.20;2.33;;;19.30;99.90;;;;;;5076785;28;20052;-91
2022/07/29 10:02:30;;;;;;;3.88;2.05;;;19.40;99.90;;;;;;5076647;28;20082;-85
2022/07/29 10:04:56;;;;;;;7.25;2.30;;;19.50;99.90;;;;;;5094632;28;20115;-87
2022/07/29 10:07:22;;;;;;;8.25;2.42;;;19.70;99.90;;;;;;5094500;28;20132;-86
2022/07/29 10:09:56;;;;;;;5.35;1.83;;;19.80;99.90;;;;;;5094444;28;20538;-85
2022/07/29 10:12:23;;;;;;;5.82;2.33;;;20.00;99.90;;;;;;5094221;28;20048;-88
2022/07/29 10:14:49;;;;;;;6.80;2.58;;;20.20;99.90;;;;;;5094412;28;20048;-87
2022/07/29 10:17:16;;;;;;;3.47;1.90;;;20.40;99.90;;;;;;5094366;28;20517;-88
2022/07/29 10:19:42;;;;;;;5.80;2.63;;;20.80;99.90;;;;;;5094040;28;20508;-86
2022/07/29 10:22:10;;;;;;;5.65;1.90;;;21.10;99.90;;;;;;5094166;28;20393;-87
2022/07/29 10:24:39;;;;;;;4.65;1.90;;;21.30;99.90;;;;;;5076287;28;20393;-87
2022/07/29 10:27:07;;;;;;;4.85;1.90;;;21.70;99.90;;;;;;5059059;28;20048;-84
2022/07/29 10:29:32;;;;;;;3.85;1.63;;;23.00;99.90;;;;;;5094205;28;20048;-86
2022/07/29 10:32:29;;;;;;;7.50;2.28;;;23.80;97.90;;;;;;5058962;28;20048;-85
2022/07/29 10:34:58;;;;;;;6.38;2.33;;;23.90;97.00;;;;;;5076355;28;20130;-86
2022/07/29 10:37:57;;;;;;;7.88;2.05;;;23.90;95.10;;;;;;5094559;28;20381;-86
2022/07/29 10:43:36;;;;;;;4.68;1.90;;;24.40;94.70;;;;;;5094149;28;20055;-84
2022/07/29 10:46:02;;;;;;;7.03;2.30;;;24.40;85.70;;;;;;5075473;28;20048;-87
2022/07/29 10:48:29;;;;;;;5.60;2.55;;;24.10;84.60;;;;;;5093845;28;20109;-87
2022/07/29 10:51:02;;;;;;;5.18;2.13;;;24.00;83.60;;;;;;5093822;28;20106;-87
2022/07/29 10:53:50;;;;;;;5.78;2.20;;;24.00;86.20;;;;;;5093772;28;20076;-88
2022/07/29 10:56:32;;;;;;;6.75;2.15;;;24.30;92.30;;;;;;5093849;28;20101;-87
2022/07/29 10:59:16;;;;;;;7.82;2.28;;;24.60;81.90;;;;;;5093832;28;20083;-87
2022/07/29 11:01:42;;;;;;;4.60;2.08;;;24.90;79.70;;;;;;5093524;28;20044;-87
2022/07/29 11:04:07;;;;;;;6.03;2.00;;;24.90;80.60;;;;;;5093200;28;20388;-83
2022/07/29 11:06:58;;;;;;;5.38;2.20;;;25.00;75.70;;;;;;5093522;28;20051;-86
2022/07/29 11:09:24;;;;;;;9.13;3.10;;;24.80;79.40;;;;;;5075546;28;20078;-88
2022/07/29 11:11:49;;;;;;;4.88;2.33;;;24.60;75.40;;;;;;5075585;28;20055;-88
2022/07/29 11:14:17;;;;;;;4.43;2.10;;;24.40;83.10;;;;;;5075814;28;20491;-87
2022/07/29 11:17:04;;;;;;;9.50;2.42;;;24.30;83.60;;;;;;5075353;28;20085;-87
2022/07/29 11:19:30;;;;;;;6.45;2.20;;;24.10;87.10;;;;;;5093170;28;20050;-87
2022/07/29 11:21:56;;;;;;;5.13;2.28;;;23.90;84.90;;;;;;5075322;28;20047;-87
2022/07/29 11:24:31;;;;;;;3.15;1.75;;;23.80;90.60;;;;;;5093230;28;20052;-87
2022/07/29 11:27:08;;;;;;;4.13;1.88;;;23.70;92.70;;;;;;5075311;28;20056;-86
2022/07/29 11:29:37;;;;;;;6.18;2.33;;;23.70;91.60;;;;;;5075072;28;20139;-87
2022/07/29 11:32:12;;;;;;;6.53;2.67;;;23.70;97.40;;;;;;5092892;28;20087;-87
2022/07/29 11:34:40;;;;;;;5.90;2.40;;;23.80;97.50;;;;;;5075163;28;20048;-86
2022/07/29 11:37:09;;;;;;;7.20;2.60;;;23.90;94.90;;;;;;5093157;28;20052;-87
2022/07/29 11:39:37;;;;;;;4.00;2.30;;;23.90;96.60;;;;;;5093053;28;20044;-86
2022/07/29 11:42:23;;;;;;;4.93;2.20;;;24.10;94.20;;;;;;5093217;28;20377;-85
2022/07/29 11:45:36;;;;;;;6.22;2.55;;;24.60;90.70;;;;;;5093334;28;20193;-86
2022/07/29 11:48:03;;;;;;;6.93;2.38;;;25.00;86.60;;;;;;5092846;28;20051;-87
2022/07/29 11:50:35;;;;;;;5.75;2.00;;;25.60;83.60;;;;;;5093610;28;20083;-87
2022/07/29 11:53:03;;;;;;;5.70;2.30;;;26.20;72.60;;;;;;5075586;28;20082;-86
2022/07/29 11:55:31;;;;;;;7.57;1.98;;;26.10;68.90;;;;;;5093706;28;20044;-87
2022/07/29 11:58:00;;;;;;;14.20;2.50;;;25.70;70.90;;;;;;5093243;28;20128;-86
2022/07/29 12:00:27;;;;;;;11.10;2.40;;;25.60;72.40;;;;;;5075133;28;20052;-87
2022/07/29 12:02:54;;;;;;;10.60;3.00;;;25.70;71.90;;;;;;5093251;28;20369;-87
2022/07/29 12:05:20;;;;;;;6.53;2.97;;;25.70;68.90;;;;;;5093306;28;20059;-86
2022/07/29 12:07:48;;;;;;;9.77;2.70;;;25.80;71.10;;;;;;5058498;28;20441;-86
2022/07/29 12:10:13;;;;;;;10.23;2.33;;;26.00;70.10;;;;;;5075152;28;20044;-87
2022/07/29 12:12:39;;;;;;;4.80;2.30;;;26.00;71.50;;;;;;5075131;28;20051;-86
2022/07/29 12:15:20;;;;;;;5.82;2.50;;;25.90;69.80;;;;;;5059075;28;20062;-87
2022/07/29 12:17:46;;;;;;;;;;;25.90;72.50;;;;;;5075520;28;20050;-87
2022/07/29 12:20:12;;;;;;;5.85;2.30;;;25.90;70.30;;;;;;5075535;28;20345;-88
2022/07/29 12:22:43;;;;;;;6.43;2.30;;;25.80;70.50;;;;;;5095742;28;20046;-86
2022/07/29 12:25:16;;;;;;;8.23;2.55;;;25.70;69.30;;;;;;5079161;28;20044;-85
2022/07/29 12:27:43;;;;;;;7.53;2.85;;;25.90;67.60;;;;;;5097087;28;20083;-86
2022/07/29 12:30:48;;;;;;;6.82;2.30;;;25.90;67.00;;;;;;5097420;28;20047;-86
2022/07/29 12:33:24;;;;;;;6.53;2.38;;;26.30;68.70;;;;;;5018378;28;20068;-86
2022/07/29 12:36:01;;;;;;;11.15;2.70;;;26.60;66.20;;;;;;5034660;28;20046;-87
2022/07/29 12:38:27;;;;;;;6.72;2.33;;;26.80;65.60;;;;;;5034073;28;20072;-85
2022/07/29 12:40:54;;;;;;;5.45;2.00;;;26.80;65.80;;;;;;5033916;28;20207;-85
2022/07/29 12:43:24;;;;;;;9.43;2.40;;;26.60;66.60;;;;;;5033830;28;20107;-87
2022/07/29 12:45:53;;;;;;;7.90;2.45;;;26.50;69.40;;;;;;5033740;28;20132;-87
2022/07/29 12:48:35;;;;;;;7.60;2.35;;;26.50;71.20;;;;;;5033970;28;20429;-86
2022/07/29 12:51:03;;;;;;;6.95;2.33;;;26.90;71.00;;;;;;5033470;28;20092;-88
2022/07/29 12:53:29;;;;;;;7.22;2.22;;;27.20;68.30;;;;;;5017141;28;20046;-86
2022/07/29 12:55:56;;;;;;;8.43;2.50;;;27.30;68.50;;;;;;5017565;28;20095;-85
2022/07/29 12:58:29;;;;;;;7.93;1.80;;;27.40;65.00;;;;;;5018057;28;20051;-86
2022/07/29 13:01:05;;;;;;;9.10;2.08;;;27.30;63.70;;;;;;5034031;28;20115;-84
2022/07/29 13:03:59;;;;;;;5.18;2.05;;;27.10;60.70;;;;;;5053835;28;20056;-87
2022/07/29 13:06:39;;;;;;;8.13;2.13;;;26.80;60.50;;;;;;5060811;28;20539;-85